sensor_id;sensor_type;location;lat;lon;timestamp;P1;durP1;ratioP1;P2;durP2;ratioP2
80625;SDS011;69982;51.758;5.784;2023-07-13T00:04:43;5.50;;;0.80;;
80625;SDS011;69982;51.758;5.784;2023-07-13T00:07:10;7.20;;;1.20;;
80625;SDS011;69982;51.758;5.784;2023-07-13T00:09:36;11.10;;;1.20;;
80625;SDS011;69982;51.758;5.784;2023-07-13T00:12:02;8.50;;;1.30;;
80625;SDS011;69982;51.758;5.784;2023-07-13T00:14:29;6.60;;;1.50;;
80625;SDS011;69982;51.758;5.784;2023-07-13T00:16:56;6.80;;;1.00;;
80625;SDS011;69982;51.758;5.784;2023-07-13T00:19:23;8.30;;;1.00;;
80625;SDS011;69982;51.758;5.784;2023-07-13T00:21:49;7.70;;;0.90;;
80625;SDS011;69982;51.758;5.784;2023-07-13T00:24:16;6.70;;;1.10;;
80625;SDS011;69982;51.758;5.784;2023-07-13T00:26:49;5.20;;;1.00;;
80625;SDS011;69982;51.758;5.784;2023-07-13T00:29:16;5.30;;;1.10;;
80625;SDS011;69982;51.758;5.784;2023-07-13T00:31:42;5.70;;;1.20;;
80625;SDS011;69982;51.758;5.784;2023-07-13T00:34:09;5.80;;;0.80;;
80625;SDS011;69982;51.758;5.784;2023-07-13T00:36:36;7.80;;;1.60;;
80625;SDS011;69982;51.758;5.784;2023-07-13T00:39:03;6.50;;;1.20;;
80625;SDS011;69982;51.758;5.784;2023-07-13T00:41:30;9.90;;;1.60;;
80625;SDS011;69982;51.758;5.784;2023-07-13T00:43:57;5.80;;;1.30;;
80625;SDS011;69982;51.758;5.784;2023-07-13T00:46:25;6.00;;;1.30;;
80625;SDS011;69982;51.758;5.784;2023-07-13T00:48:54;9.80;;;1.00;;
80625;SDS011;69982;51.758;5.784;2023-07-13T00:51:34;6.00;;;1.00;;
80625;SDS011;69982;51.758;5.784;2023-07-13T00:54:16;5.50;;;1.20;;
80625;SDS011;69982;51.758;5.784;2023-07-13T00:56:47;5.40;;;1.50;;
80625;SDS011;69982;51.758;5.784;2023-07-13T00:59:16;9.20;;;1.70;;
80625;SDS011;69982;51.758;5.784;2023-07-13T01:01:45;9.20;;;1.40;;
80625;SDS011;69982;51.758;5.784;2023-07-13T01:04:12;9.40;;;1.80;;
80625;SDS011;69982;51.758;5.784;2023-07-13T01:06:39;6.10;;;1.80;;
80625;SDS011;69982;51.758;5.784;2023-07-13T01:09:07;8.30;;;1.50;;
80625;SDS011;69982;51.758;5.784;2023-07-13T01:11:34;11.30;;;1.50;;
80625;SDS011;69982;51.758;5.784;2023-07-13T01:14:01;7.70;;;1.40;;
80625;SDS011;69982;51.758;5.784;2023-07-13T01:16:29;4.90;;;1.20;;
80625;SDS011;69982;51.758;5.784;2023-07-13T01:18:58;7.60;;;1.80;;
80625;SDS011;69982;51.758;5.784;2023-07-13T01:21:25;6.00;;;1.40;;
80625;SDS011;69982;51.758;5.784;2023-07-13T01:23:53;8.10;;;2.40;;
80625;SDS011;69982;51.758;5.784;2023-07-13T01:26:21;9.00;;;1.60;;
80625;SDS011;69982;51.758;5.784;2023-07-13T01:28:47;6.00;;;1.60;;
80625;SDS011;69982;51.758;5.784;2023-07-13T01:31:14;8.20;;;1.60;;
80625;SDS011;69982;51.758;5.784;2023-07-13T01:33:40;9.40;;;1.80;;
80625;SDS011;69982;51.758;5.784;2023-07-13T01:36:08;9.10;;;1.80;;
80625;SDS011;69982;51.758;5.784;2023-07-13T01:38:36;10.00;;;1.60;;
80625;SDS011;69982;51.758;5.784;2023-07-13T01:41:02;5.80;;;1.40;;
80625;SDS011;69982;51.758;5.784;2023-07-13T01:43:29;8.20;;;1.40;;
80625;SDS011;69982;51.758;5.784;2023-07-13T01:45:56;7.00;;;1.60;;
80625;SDS011;69982;51.758;5.784;2023-07-13T01:48:26;7.40;;;1.80;;
80625;SDS011;69982;51.758;5.784;2023-07-13T01:50:53;6.20;;;1.30;;
80625;SDS011;69982;51.758;5.784;2023-07-13T01:53:19;5.90;;;1.80;;
80625;SDS011;69982;51.758;5.784;2023-07-13T01:55:46;8.40;;;2.10;;
80625;SDS011;69982;51.758;5.784;2023-07-13T01:58:13;7.20;;;1.60;;
80625;SDS011;69982;51.758;5.784;2023-07-13T02:00:39;12.10;;;2.10;;
80625;SDS011;69982;51.758;5.784;2023-07-13T02:03:05;8.40;;;1.50;;
80625;SDS011;69982;51.758;5.784;2023-07-13T02:05:32;6.30;;;1.30;;
80625;SDS011;69982;51.758;5.784;2023-07-13T02:07:58;6.90;;;1.50;;
80625;SDS011;69982;51.758;5.784;2023-07-13T02:10:24;4.20;;;1.20;;
80625;SDS011;69982;51.758;5.784;2023-07-13T02:12:52;8.50;;;1.60;;
80625;SDS011;69982;51.758;5.784;2023-07-13T02:15:18;9.40;;;2.10;;
80625;SDS011;69982;51.758;5.784;2023-07-13T02:17:44;8.00;;;1.40;;
80625;SDS011;69982;51.758;5.784;2023-07-13T02:20:11;7.40;;;1.60;;
80625;SDS011;69982;51.758;5.784;2023-07-13T02:22:37;8.40;;;1.60;;
80625;SDS011;69982;51.758;5.784;2023-07-13T02:25:04;5.90;;;1.40;;
80625;SDS011;69982;51.758;5.784;2023-07-13T02:27:30;6.20;;;1.30;;
80625;SDS011;69982;51.758;5.784;2023-07-13T02:29:57;7.20;;;1.10;;
80625;SDS011;69982;51.758;5.784;2023-07-13T02:32:23;7.60;;;1.80;;
80625;SDS011;69982;51.758;5.784;2023-07-13T02:34:51;9.20;;;1.50;;
80625;SDS011;69982;51.758;5.784;2023-07-13T02:37:18;9.60;;;1.80;;
80625;SDS011;69982;51.758;5.784;2023-07-13T02:39:45;6.10;;;1.40;;
80625;SDS011;69982;51.758;5.784;2023-07-13T02:42:11;9.20;;;1.60;;
80625;SDS011;69982;51.758;5.784;2023-07-13T02:44:38;12.40;;;2.20;;
80625;SDS011;69982;51.758;5.784;2023-07-13T02:47:04;4.90;;;1.70;;
80625;SDS011;69982;51.758;5.784;2023-07-13T02:49:30;9.70;;;2.00;;
80625;SDS011;69982;51.758;5.784;2023-07-13T02:51:57;7.30;;;1.40;;
80625;SDS011;69982;51.758;5.784;2023-07-13T02:54:23;9.90;;;1.90;;
80625;SDS011;69982;51.758;5.784;2023-07-13T02:56:49;11.50;;;1.80;;
80625;SDS011;69982;51.758;5.784;2023-07-13T02:59:16;6.60;;;1.80;;
80625;SDS011;69982;51.758;5.784;2023-07-13T03:01:42;10.10;;;2.10;;
80625;SDS011;69982;51.758;5.784;2023-07-13T03:04:08;8.40;;;1.60;;
80625;SDS011;69982;51.758;5.784;2023-07-13T03:06:35;6.70;;;1.90;;
80625;SDS011;69982;51.758;5.784;2023-07-13T03:09:01;7.90;;;1.70;;
80625;SDS011;69982;51.758;5.784;2023-07-13T03:11:28;7.70;;;1.80;;
80625;SDS011;69982;51.758;5.784;2023-07-13T03:13:54;8.30;;;1.70;;
80625;SDS011;69982;51.758;5.784;2023-07-13T03:16:21;6.20;;;1.80;;
80625;SDS011;69982;51.758;5.784;2023-07-13T03:18:48;5.30;;;1.40;;
80625;SDS011;69982;51.758;5.784;2023-07-13T03:21:15;10.40;;;2.00;;
80625;SDS011;69982;51.758;5.784;2023-07-13T03:23:41;5.80;;;1.90;;
80625;SDS011;69982;51.758;5.784;2023-07-13T03:26:13;6.70;;;2.00;;
80625;SDS011;69982;51.758;5.784;2023-07-13T03:28:41;10.00;;;2.00;;
80625;SDS011;69982;51.758;5.784;2023-07-13T03:31:10;8.00;;;1.70;;
80625;SDS011;69982;51.758;5.784;2023-07-13T03:33:38;8.70;;;2.20;;
80625;SDS011;69982;51.758;5.784;2023-07-13T03:36:05;12.50;;;2.10;;
80625;SDS011;69982;51.758;5.784;2023-07-13T03:38:32;8.90;;;1.90;;
80625;SDS011;69982;51.758;5.784;2023-07-13T03:40:59;8.40;;;1.70;;
80625;SDS011;69982;51.758;5.784;2023-07-13T03:43:26;9.40;;;2.00;;
80625;SDS011;69982;51.758;5.784;2023-07-13T03:45:53;9.70;;;2.40;;
80625;SDS011;69982;51.758;5.784;2023-07-13T03:48:19;9.80;;;2.20;;
80625;SDS011;69982;51.758;5.784;2023-07-13T03:50:47;10.10;;;2.10;;
80625;SDS011;69982;51.758;5.784;2023-07-13T03:53:14;8.70;;;1.90;;
80625;SDS011;69982;51.758;5.784;2023-07-13T03:55:41;7.30;;;1.90;;
80625;SDS011;69982;51.758;5.784;2023-07-13T04:00:55;12.00;;;2.30;;
80625;SDS011;69982;51.758;5.784;2023-07-13T04:03:21;9.10;;;2.20;;
80625;SDS011;69982;51.758;5.784;2023-07-13T04:05:48;7.60;;;2.20;;
80625;SDS011;69982;51.758;5.784;2023-07-13T04:08:14;9.10;;;1.70;;
80625;SDS011;69982;51.758;5.784;2023-07-13T04:10:42;10.90;;;2.20;;
80625;SDS011;69982;51.758;5.784;2023-07-13T04:13:09;8.60;;;2.00;;
80625;SDS011;69982;51.758;5.784;2023-07-13T04:15:35;12.80;;;2.30;;
80625;SDS011;69982;51.758;5.784;2023-07-13T04:18:01;8.40;;;1.90;;
80625;SDS011;69982;51.758;5.784;2023-07-13T04:20:29;12.70;;;3.10;;
80625;SDS011;69982;51.758;5.784;2023-07-13T04:22:56;6.00;;;1.70;;
80625;SDS011;69982;51.758;5.784;2023-07-13T04:25:23;12.70;;;2.00;;
80625;SDS011;69982;51.758;5.784;2023-07-13T04:27:50;9.10;;;1.60;;
80625;SDS011;69982;51.758;5.784;2023-07-13T04:30:18;9.70;;;2.20;;
80625;SDS011;69982;51.758;5.784;2023-07-13T04:32:44;8.60;;;2.30;;
80625;SDS011;69982;51.758;5.784;2023-07-13T04:35:11;8.70;;;2.40;;
80625;SDS011;69982;51.758;5.784;2023-07-13T04:37:37;12.10;;;2.50;;
80625;SDS011;69982;51.758;5.784;2023-07-13T04:40:04;7.70;;;2.40;;
80625;SDS011;69982;51.758;5.784;2023-07-13T04:42:32;12.30;;;2.40;;
80625;SDS011;69982;51.758;5.784;2023-07-13T04:45:00;10.90;;;2.30;;
80625;SDS011;69982;51.758;5.784;2023-07-13T04:47:26;8.00;;;2.20;;
80625;SDS011;69982;51.758;5.784;2023-07-13T04:49:56;10.30;;;2.20;;
80625;SDS011;69982;51.758;5.784;2023-07-13T04:52:23;10.80;;;3.10;;
80625;SDS011;69982;51.758;5.784;2023-07-13T04:54:50;10.20;;;3.20;;
80625;SDS011;69982;51.758;5.784;2023-07-13T04:57:16;9.80;;;2.60;;
80625;SDS011;69982;51.758;5.784;2023-07-13T04:59:43;8.00;;;2.80;;
80625;SDS011;69982;51.758;5.784;2023-07-13T05:02:10;8.60;;;2.70;;
80625;SDS011;69982;51.758;5.784;2023-07-13T05:04:36;11.70;;;3.10;;
80625;SDS011;69982;51.758;5.784;2023-07-13T05:07:02;8.70;;;2.60;;
80625;SDS011;69982;51.758;5.784;2023-07-13T05:09:29;10.90;;;2.70;;
80625;SDS011;69982;51.758;5.784;2023-07-13T05:11:55;10.50;;;3.20;;
80625;SDS011;69982;51.758;5.784;2023-07-13T05:14:21;12.20;;;3.40;;
80625;SDS011;69982;51.758;5.784;2023-07-13T05:16:48;13.60;;;3.30;;
80625;SDS011;69982;51.758;5.784;2023-07-13T05:19:14;12.40;;;3.00;;
80625;SDS011;69982;51.758;5.784;2023-07-13T05:21:41;11.40;;;3.30;;
80625;SDS011;69982;51.758;5.784;2023-07-13T05:24:07;14.00;;;3.80;;
80625;SDS011;69982;51.758;5.784;2023-07-13T05:26:40;16.60;;;4.40;;
80625;SDS011;69982;51.758;5.784;2023-07-13T05:29:07;13.50;;;4.80;;
80625;SDS011;69982;51.758;5.784;2023-07-13T05:31:33;17.50;;;4.80;;
80625;SDS011;69982;51.758;5.784;2023-07-13T05:34:00;22.50;;;5.10;;
80625;SDS011;69982;51.758;5.784;2023-07-13T05:36:26;14.80;;;5.70;;
80625;SDS011;69982;51.758;5.784;2023-07-13T05:38:52;20.60;;;5.30;;
80625;SDS011;69982;51.758;5.784;2023-07-13T05:41:18;19.00;;;6.20;;
80625;SDS011;69982;51.758;5.784;2023-07-13T05:43:45;14.90;;;4.50;;
80625;SDS011;69982;51.758;5.784;2023-07-13T05:46:11;24.00;;;6.60;;
80625;SDS011;69982;51.758;5.784;2023-07-13T05:48:38;24.60;;;7.00;;
80625;SDS011;69982;51.758;5.784;2023-07-13T05:51:04;21.70;;;6.80;;
80625;SDS011;69982;51.758;5.784;2023-07-13T05:53:31;28.10;;;6.80;;
80625;SDS011;69982;51.758;5.784;2023-07-13T05:55:57;23.10;;;6.80;;
80625;SDS011;69982;51.758;5.784;2023-07-13T05:58:24;22.50;;;6.80;;
80625;SDS011;69982;51.758;5.784;2023-07-13T06:00:58;25.80;;;8.50;;
80625;SDS011;69982;51.758;5.784;2023-07-13T06:03:33;23.70;;;7.50;;
80625;SDS011;69982;51.758;5.784;2023-07-13T06:06:00;17.70;;;6.90;;
80625;SDS011;69982;51.758;5.784;2023-07-13T06:08:27;24.20;;;8.70;;
80625;SDS011;69982;51.758;5.784;2023-07-13T06:10:54;24.50;;;8.70;;
80625;SDS011;69982;51.758;5.784;2023-07-13T06:13:20;22.90;;;8.30;;
80625;SDS011;69982;51.758;5.784;2023-07-13T06:15:48;25.80;;;8.50;;
80625;SDS011;69982;51.758;5.784;2023-07-13T06:18:15;22.50;;;8.60;;
80625;SDS011;69982;51.758;5.784;2023-07-13T06:20:42;23.00;;;9.30;;
80625;SDS011;69982;51.758;5.784;2023-07-13T06:23:08;25.20;;;9.20;;
80625;SDS011;69982;51.758;5.784;2023-07-13T06:25:35;26.90;;;7.60;;
80625;SDS011;69982;51.758;5.784;2023-07-13T06:28:01;28.30;;;8.30;;
80625;SDS011;69982;51.758;5.784;2023-07-13T06:30:28;19.90;;;8.60;;
80625;SDS011;69982;51.758;5.784;2023-07-13T06:32:54;21.90;;;8.10;;
80625;SDS011;69982;51.758;5.784;2023-07-13T06:35:21;26.70;;;9.90;;
80625;SDS011;69982;51.758;5.784;2023-07-13T06:37:48;27.20;;;9.50;;
80625;SDS011;69982;51.758;5.784;2023-07-13T06:40:14;23.70;;;8.70;;
80625;SDS011;69982;51.758;5.784;2023-07-13T06:42:41;26.50;;;9.20;;
80625;SDS011;69982;51.758;5.784;2023-07-13T06:45:07;20.40;;;7.70;;
80625;SDS011;69982;51.758;5.784;2023-07-13T06:47:34;23.90;;;7.20;;
80625;SDS011;69982;51.758;5.784;2023-07-13T06:50:01;18.20;;;7.30;;
80625;SDS011;69982;51.758;5.784;2023-07-13T06:52:27;23.80;;;9.40;;
80625;SDS011;69982;51.758;5.784;2023-07-13T06:54:54;20.90;;;7.40;;
80625;SDS011;69982;51.758;5.784;2023-07-13T06:57:20;26.50;;;9.20;;
80625;SDS011;69982;51.758;5.784;2023-07-13T06:59:49;22.90;;;8.70;;
80625;SDS011;69982;51.758;5.784;2023-07-13T07:02:16;21.40;;;7.50;;
80625;SDS011;69982;51.758;5.784;2023-07-13T07:04:42;16.70;;;6.90;;
80625;SDS011;69982;51.758;5.784;2023-07-13T07:07:08;24.00;;;7.80;;
80625;SDS011;69982;51.758;5.784;2023-07-13T07:09:35;23.60;;;8.30;;
80625;SDS011;69982;51.758;5.784;2023-07-13T07:12:02;23.70;;;9.10;;
80625;SDS011;69982;51.758;5.784;2023-07-13T07:14:30;25.80;;;7.70;;
80625;SDS011;69982;51.758;5.784;2023-07-13T07:16:57;20.40;;;8.70;;
80625;SDS011;69982;51.758;5.784;2023-07-13T07:19:24;17.30;;;7.60;;
80625;SDS011;69982;51.758;5.784;2023-07-13T07:21:50;21.70;;;8.40;;
80625;SDS011;69982;51.758;5.784;2023-07-13T07:24:17;18.20;;;7.80;;
80625;SDS011;69982;51.758;5.784;2023-07-13T07:26:43;19.20;;;7.40;;
80625;SDS011;69982;51.758;5.784;2023-07-13T07:29:12;20.70;;;7.80;;
80625;SDS011;69982;51.758;5.784;2023-07-13T07:31:44;24.70;;;8.20;;
80625;SDS011;69982;51.758;5.784;2023-07-13T07:34:13;17.90;;;7.80;;
80625;SDS011;69982;51.758;5.784;2023-07-13T07:36:40;21.80;;;8.00;;
80625;SDS011;69982;51.758;5.784;2023-07-13T07:39:09;17.90;;;7.40;;
80625;SDS011;69982;51.758;5.784;2023-07-13T07:41:35;17.50;;;7.30;;
80625;SDS011;69982;51.758;5.784;2023-07-13T07:44:06;22.30;;;7.00;;
80625;SDS011;69982;51.758;5.784;2023-07-13T07:46:33;22.80;;;8.70;;
80625;SDS011;69982;51.758;5.784;2023-07-13T07:48:59;21.60;;;8.00;;
80625;SDS011;69982;51.758;5.784;2023-07-13T07:51:26;18.90;;;7.00;;
80625;SDS011;69982;51.758;5.784;2023-07-13T07:53:52;17.20;;;7.90;;
80625;SDS011;69982;51.758;5.784;2023-07-13T07:56:18;18.50;;;7.10;;
80625;SDS011;69982;51.758;5.784;2023-07-13T07:58:47;22.40;;;7.40;;
80625;SDS011;69982;51.758;5.784;2023-07-13T08:01:17;16.20;;;6.60;;
80625;SDS011;69982;51.758;5.784;2023-07-13T08:03:46;20.70;;;7.50;;
80625;SDS011;69982;51.758;5.784;2023-07-13T08:06:16;16.30;;;8.30;;
80625;SDS011;69982;51.758;5.784;2023-07-13T08:09:06;22.10;;;7.50;;
80625;SDS011;69982;51.758;5.784;2023-07-13T08:14:03;19.30;;;6.70;;
80625;SDS011;69982;51.758;5.784;2023-07-13T08:16:29;19.00;;;7.60;;
80625;SDS011;69982;51.758;5.784;2023-07-13T08:18:56;17.30;;;7.60;;
80625;SDS011;69982;51.758;5.784;2023-07-13T08:21:22;16.90;;;7.20;;
80625;SDS011;69982;51.758;5.784;2023-07-13T08:23:49;19.90;;;7.10;;
80625;SDS011;69982;51.758;5.784;2023-07-13T08:26:15;19.70;;;6.40;;
80625;SDS011;69982;51.758;5.784;2023-07-13T08:28:42;17.70;;;7.20;;
80625;SDS011;69982;51.758;5.784;2023-07-13T08:31:08;14.90;;;6.30;;
80625;SDS011;69982;51.758;5.784;2023-07-13T08:36:03;20.70;;;7.40;;
80625;SDS011;69982;51.758;5.784;2023-07-13T08:38:30;16.60;;;7.30;;
80625;SDS011;69982;51.758;5.784;2023-07-13T08:40:56;15.20;;;6.70;;
80625;SDS011;69982;51.758;5.784;2023-07-13T08:43:28;14.30;;;6.50;;
80625;SDS011;69982;51.758;5.784;2023-07-13T08:46:01;16.70;;;7.10;;
80625;SDS011;69982;51.758;5.784;2023-07-13T08:48:35;19.20;;;6.30;;
80625;SDS011;69982;51.758;5.784;2023-07-13T08:51:28;17.10;;;5.40;;
80625;SDS011;69982;51.758;5.784;2023-07-13T08:54:20;16.00;;;6.00;;
80625;SDS011;69982;51.758;5.784;2023-07-13T08:56:53;15.20;;;5.70;;
80625;SDS011;69982;51.758;5.784;2023-07-13T08:59:24;13.00;;;4.90;;
80625;SDS011;69982;51.758;5.784;2023-07-13T09:01:57;17.60;;;6.00;;
80625;SDS011;69982;51.758;5.784;2023-07-13T09:04:25;13.70;;;5.00;;
80625;SDS011;69982;51.758;5.784;2023-07-13T09:10:18;15.60;;;6.10;;
80625;SDS011;69982;51.758;5.784;2023-07-13T09:15:30;10.50;;;4.50;;
80625;SDS011;69982;51.758;5.784;2023-07-13T09:18:08;11.60;;;5.20;;
80625;SDS011;69982;51.758;5.784;2023-07-13T09:20:42;12.50;;;4.10;;
80625;SDS011;69982;51.758;5.784;2023-07-13T09:23:17;13.00;;;4.60;;
80625;SDS011;69982;51.758;5.784;2023-07-13T09:25:50;11.70;;;3.90;;
80625;SDS011;69982;51.758;5.784;2023-07-13T09:28:26;8.40;;;4.30;;
80625;SDS011;69982;51.758;5.784;2023-07-13T09:31:04;12.50;;;5.10;;
80625;SDS011;69982;51.758;5.784;2023-07-13T09:33:45;12.90;;;5.10;;
80625;SDS011;69982;51.758;5.784;2023-07-13T09:36:18;12.30;;;4.10;;
80625;SDS011;69982;51.758;5.784;2023-07-13T09:38:49;10.90;;;5.40;;
80625;SDS011;69982;51.758;5.784;2023-07-13T09:44:14;9.00;;;3.80;;
80625;SDS011;69982;51.758;5.784;2023-07-13T09:46:44;11.20;;;4.10;;
80625;SDS011;69982;51.758;5.784;2023-07-13T09:49:22;15.00;;;5.30;;
80625;SDS011;69982;51.758;5.784;2023-07-13T09:51:50;8.80;;;4.20;;
80625;SDS011;69982;51.758;5.784;2023-07-13T09:54:26;11.70;;;4.50;;
80625;SDS011;69982;51.758;5.784;2023-07-13T09:56:56;14.30;;;4.40;;
80625;SDS011;69982;51.758;5.784;2023-07-13T09:59:26;10.40;;;4.30;;
80625;SDS011;69982;51.758;5.784;2023-07-13T10:01:55;13.70;;;4.80;;
80625;SDS011;69982;51.758;5.784;2023-07-13T10:04:26;12.30;;;5.10;;
80625;SDS011;69982;51.758;5.784;2023-07-13T10:07:05;10.00;;;4.10;;
80625;SDS011;69982;51.758;5.784;2023-07-13T10:09:39;9.80;;;4.70;;
80625;SDS011;69982;51.758;5.784;2023-07-13T10:12:14;13.00;;;4.90;;
80625;SDS011;69982;51.758;5.784;2023-07-13T10:14:41;13.10;;;5.30;;
80625;SDS011;69982;51.758;5.784;2023-07-13T10:17:08;10.10;;;4.50;;
80625;SDS011;69982;51.758;5.784;2023-07-13T10:19:38;7.60;;;4.50;;
80625;SDS011;69982;51.758;5.784;2023-07-13T10:24:42;13.80;;;6.20;;
80625;SDS011;69982;51.758;5.784;2023-07-13T10:27:15;11.20;;;5.70;;
80625;SDS011;69982;51.758;5.784;2023-07-13T10:29:47;17.20;;;5.30;;
80625;SDS011;69982;51.758;5.784;2023-07-13T10:32:19;12.60;;;5.80;;
80625;SDS011;69982;51.758;5.784;2023-07-13T10:34:49;12.50;;;6.90;;
80625;SDS011;69982;51.758;5.784;2023-07-13T10:37:19;12.10;;;6.50;;
80625;SDS011;69982;51.758;5.784;2023-07-13T10:39:49;10.40;;;5.70;;
80625;SDS011;69982;51.758;5.784;2023-07-13T10:42:27;13.50;;;6.80;;
80625;SDS011;69982;51.758;5.784;2023-07-13T10:44:58;12.40;;;6.10;;
80625;SDS011;69982;51.758;5.784;2023-07-13T10:47:24;12.60;;;6.50;;
80625;SDS011;69982;51.758;5.784;2023-07-13T10:49:55;10.30;;;6.10;;
80625;SDS011;69982;51.758;5.784;2023-07-13T10:55:13;10.70;;;6.10;;
80625;SDS011;69982;51.758;5.784;2023-07-13T10:58:22;14.70;;;6.00;;
80625;SDS011;69982;51.758;5.784;2023-07-13T11:00:51;7.80;;;5.20;;
80625;SDS011;69982;51.758;5.784;2023-07-13T11:03:29;11.10;;;5.10;;
80625;SDS011;69982;51.758;5.784;2023-07-13T11:12:06;8.10;;;2.80;;
80625;SDS011;69982;51.758;5.784;2023-07-13T11:14:36;6.40;;;2.50;;
80625;SDS011;69982;51.758;5.784;2023-07-13T11:22:44;3.60;;;1.50;;
80625;SDS011;69982;51.758;5.784;2023-07-13T11:33:14;3.70;;;1.20;;
80625;SDS011;69982;51.758;5.784;2023-07-13T11:36:06;7.20;;;1.90;;
80625;SDS011;69982;51.758;5.784;2023-07-13T11:38:40;5.20;;;2.20;;
80625;SDS011;69982;51.758;5.784;2023-07-13T11:41:14;7.70;;;2.50;;
80625;SDS011;69982;51.758;5.784;2023-07-13T11:46:14;8.80;;;3.30;;
80625;SDS011;69982;51.758;5.784;2023-07-13T11:48:49;7.00;;;3.40;;
80625;SDS011;69982;51.758;5.784;2023-07-13T11:53:50;7.70;;;2.60;;
80625;SDS011;69982;51.758;5.784;2023-07-13T11:56:18;4.60;;;2.10;;
80625;SDS011;69982;51.758;5.784;2023-07-13T11:58:47;9.90;;;2.50;;
80625;SDS011;69982;51.758;5.784;2023-07-13T12:01:20;11.80;;;3.90;;
80625;SDS011;69982;51.758;5.784;2023-07-13T12:03:49;5.60;;;2.40;;
80625;SDS011;69982;51.758;5.784;2023-07-13T12:09:09;7.90;;;2.10;;
80625;SDS011;69982;51.758;5.784;2023-07-13T12:11:42;6.50;;;2.20;;
80625;SDS011;69982;51.758;5.784;2023-07-13T12:14:15;5.70;;;2.20;;
80625;SDS011;69982;51.758;5.784;2023-07-13T12:16:43;5.00;;;1.80;;
80625;SDS011;69982;51.758;5.784;2023-07-13T12:19:22;7.80;;;2.60;;
80625;SDS011;69982;51.758;5.784;2023-07-13T12:21:52;6.30;;;2.60;;
80625;SDS011;69982;51.758;5.784;2023-07-13T12:24:20;10.70;;;3.20;;
80625;SDS011;69982;51.758;5.784;2023-07-13T12:26:53;8.80;;;2.70;;
80625;SDS011;69982;51.758;5.784;2023-07-13T12:29:24;9.50;;;3.00;;
80625;SDS011;69982;51.758;5.784;2023-07-13T12:31:50;7.20;;;3.00;;
80625;SDS011;69982;51.758;5.784;2023-07-13T12:34:19;9.70;;;3.10;;
80625;SDS011;69982;51.758;5.784;2023-07-13T12:36:49;8.10;;;2.70;;
80625;SDS011;69982;51.758;5.784;2023-07-13T12:41:49;8.20;;;2.90;;
80625;SDS011;69982;51.758;5.784;2023-07-13T12:44:18;8.20;;;3.20;;
80625;SDS011;69982;51.758;5.784;2023-07-13T12:46:53;10.10;;;3.50;;
80625;SDS011;69982;51.758;5.784;2023-07-13T12:49:24;7.90;;;3.40;;
80625;SDS011;69982;51.758;5.784;2023-07-13T12:51:57;9.30;;;3.20;;
80625;SDS011;69982;51.758;5.784;2023-07-13T12:54:26;14.00;;;3.70;;
80625;SDS011;69982;51.758;5.784;2023-07-13T12:56:54;7.30;;;3.00;;
80625;SDS011;69982;51.758;5.784;2023-07-13T12:59:24;9.10;;;2.90;;
80625;SDS011;69982;51.758;5.784;2023-07-13T13:01:55;7.80;;;2.60;;
80625;SDS011;69982;51.758;5.784;2023-07-13T13:04:21;7.30;;;2.70;;
80625;SDS011;69982;51.758;5.784;2023-07-13T13:06:49;8.70;;;2.90;;
80625;SDS011;69982;51.758;5.784;2023-07-13T13:09:17;8.70;;;2.60;;
80625;SDS011;69982;51.758;5.784;2023-07-13T13:11:46;8.70;;;2.40;;
80625;SDS011;69982;51.758;5.784;2023-07-13T13:14:12;6.60;;;2.40;;
80625;SDS011;69982;51.758;5.784;2023-07-13T13:16:46;7.00;;;2.90;;
80625;SDS011;69982;51.758;5.784;2023-07-13T13:19:16;8.00;;;3.10;;
80625;SDS011;69982;51.758;5.784;2023-07-13T13:21:44;7.30;;;3.30;;
80625;SDS011;69982;51.758;5.784;2023-07-13T13:24:12;9.70;;;3.70;;
80625;SDS011;69982;51.758;5.784;2023-07-13T13:26:42;5.80;;;1.70;;
80625;SDS011;69982;51.758;5.784;2023-07-13T13:29:14;5.90;;;1.70;;
80625;SDS011;69982;51.758;5.784;2023-07-13T13:31:47;6.00;;;1.50;;
80625;SDS011;69982;51.758;5.784;2023-07-13T13:34:15;4.90;;;1.80;;
80625;SDS011;69982;51.758;5.784;2023-07-13T13:36:43;4.50;;;1.30;;
80625;SDS011;69982;51.758;5.784;2023-07-13T13:39:21;6.10;;;1.50;;
80625;SDS011;69982;51.758;5.784;2023-07-13T13:41:50;5.80;;;1.30;;
80625;SDS011;69982;51.758;5.784;2023-07-13T13:44:19;4.30;;;1.30;;
80625;SDS011;69982;51.758;5.784;2023-07-13T13:46:47;4.40;;;1.40;;
80625;SDS011;69982;51.758;5.784;2023-07-13T13:49:23;5.30;;;1.60;;
80625;SDS011;69982;51.758;5.784;2023-07-13T13:51:51;4.60;;;1.20;;
80625;SDS011;69982;51.758;5.784;2023-07-13T13:54:19;8.10;;;1.50;;
80625;SDS011;69982;51.758;5.784;2023-07-13T13:56:47;6.70;;;1.70;;
80625;SDS011;69982;51.758;5.784;2023-07-13T13:59:16;6.30;;;1.10;;
80625;SDS011;69982;51.758;5.784;2023-07-13T14:01:43;4.40;;;1.20;;
80625;SDS011;69982;51.758;5.784;2023-07-13T14:04:15;4.50;;;1.20;;
80625;SDS011;69982;51.758;5.784;2023-07-13T14:06:44;4.80;;;1.30;;
80625;SDS011;69982;51.758;5.784;2023-07-13T14:09:11;7.70;;;1.90;;
80625;SDS011;69982;51.758;5.784;2023-07-13T14:11:39;5.20;;;1.50;;
80625;SDS011;69982;51.758;5.784;2023-07-13T14:14:17;5.30;;;1.20;;
80625;SDS011;69982;51.758;5.784;2023-07-13T14:16:46;4.30;;;1.10;;
80625;SDS011;69982;51.758;5.784;2023-07-13T14:19:19;5.20;;;1.40;;
80625;SDS011;69982;51.758;5.784;2023-07-13T14:21:45;6.30;;;1.50;;
80625;SDS011;69982;51.758;5.784;2023-07-13T14:24:13;6.30;;;1.60;;
80625;SDS011;69982;51.758;5.784;2023-07-13T14:26:40;6.20;;;1.40;;
80625;SDS011;69982;51.758;5.784;2023-07-13T14:29:11;4.60;;;1.80;;
80625;SDS011;69982;51.758;5.784;2023-07-13T14:31:40;6.00;;;1.60;;
80625;SDS011;69982;51.758;5.784;2023-07-13T14:34:07;6.20;;;1.50;;
80625;SDS011;69982;51.758;5.784;2023-07-13T14:36:38;6.00;;;1.30;;
80625;SDS011;69982;51.758;5.784;2023-07-13T14:39:12;5.70;;;1.40;;
80625;SDS011;69982;51.758;5.784;2023-07-13T14:41:43;5.20;;;1.10;;
80625;SDS011;69982;51.758;5.784;2023-07-13T14:44:16;8.70;;;1.80;;
80625;SDS011;69982;51.758;5.784;2023-07-13T14:46:49;4.60;;;1.30;;
80625;SDS011;69982;51.758;5.784;2023-07-13T14:51:43;5.60;;;1.30;;
80625;SDS011;69982;51.758;5.784;2023-07-13T14:54:09;5.90;;;1.50;;
80625;SDS011;69982;51.758;5.784;2023-07-13T14:56:36;5.60;;;1.70;;
80625;SDS011;69982;51.758;5.784;2023-07-13T14:59:02;6.40;;;1.20;;
80625;SDS011;69982;51.758;5.784;2023-07-13T15:01:28;5.20;;;1.60;;
80625;SDS011;69982;51.758;5.784;2023-07-13T15:03:56;6.60;;;1.80;;
80625;SDS011;69982;51.758;5.784;2023-07-13T15:08:50;5.40;;;1.40;;
80625;SDS011;69982;51.758;5.784;2023-07-13T15:11:16;8.10;;;1.40;;
80625;SDS011;69982;51.758;5.784;2023-07-13T15:13:43;4.90;;;1.20;;
80625;SDS011;69982;51.758;5.784;2023-07-13T15:16:23;5.80;;;1.40;;
80625;SDS011;69982;51.758;5.784;2023-07-13T15:18:51;6.20;;;1.30;;
80625;SDS011;69982;51.758;5.784;2023-07-13T15:21:19;6.70;;;1.50;;
80625;SDS011;69982;51.758;5.784;2023-07-13T15:23:49;6.20;;;1.10;;
80625;SDS011;69982;51.758;5.784;2023-07-13T15:26:17;5.30;;;1.00;;
80625;SDS011;69982;51.758;5.784;2023-07-13T15:31:19;3.80;;;0.80;;
80625;SDS011;69982;51.758;5.784;2023-07-13T15:33:51;3.50;;;0.90;;
80625;SDS011;69982;51.758;5.784;2023-07-13T15:36:19;4.20;;;0.80;;
80625;SDS011;69982;51.758;5.784;2023-07-13T15:38:46;1.70;;;0.40;;
80625;SDS011;69982;51.758;5.784;2023-07-13T15:41:16;2.50;;;0.60;;
80625;SDS011;69982;51.758;5.784;2023-07-13T15:43:42;4.40;;;0.50;;
80625;SDS011;69982;51.758;5.784;2023-07-13T15:46:09;2.20;;;0.70;;
80625;SDS011;69982;51.758;5.784;2023-07-13T15:48:36;2.20;;;0.50;;
80625;SDS011;69982;51.758;5.784;2023-07-13T15:51:03;2.00;;;0.50;;
80625;SDS011;69982;51.758;5.784;2023-07-13T15:53:35;2.80;;;0.60;;
80625;SDS011;69982;51.758;5.784;2023-07-13T15:56:38;2.80;;;0.50;;